sensor_id;sensor_type;location;lat;lon;timestamp;P1;durP1;ratioP1;P2;durP2;ratioP2
55692;SDS011;41590;53.366;5.212;2022-10-16T00:01:20;36.80;;;4.65;;
55692;SDS011;41590;53.366;5.212;2022-10-16T00:03:48;30.17;;;4.90;;
55692;SDS011;41590;53.366;5.212;2022-10-16T00:06:15;28.05;;;4.13;;
55692;SDS011;41590;53.366;5.212;2022-10-16T00:08:43;26.92;;;3.80;;
55692;SDS011;41590;53.366;5.212;2022-10-16T00:11:12;28.15;;;3.92;;
55692;SDS011;41590;53.366;5.212;2022-10-16T00:13:46;30.50;;;4.13;;
55692;SDS011;41590;53.366;5.212;2022-10-16T00:16:15;33.70;;;4.97;;
55692;SDS011;41590;53.366;5.212;2022-10-16T00:18:42;30.10;;;4.15;;
55692;SDS011;41590;53.366;5.212;2022-10-16T00:21:11;30.00;;;4.40;;
55692;SDS011;41590;53.366;5.212;2022-10-16T00:23:43;27.23;;;4.47;;
55692;SDS011;41590;53.366;5.212;2022-10-16T00:26:09;30.25;;;3.50;;
55692;SDS011;41590;53.366;5.212;2022-10-16T00:28:41;27.75;;;4.03;;
55692;SDS011;41590;53.366;5.212;2022-10-16T00:31:08;30.70;;;4.50;;
55692;SDS011;41590;53.366;5.212;2022-10-16T00:33:36;27.88;;;3.75;;
55692;SDS011;41590;53.366;5.212;2022-10-16T00:36:03;30.55;;;4.20;;
55692;SDS011;41590;53.366;5.212;2022-10-16T00:38:30;35.13;;;4.57;;
55692;SDS011;41590;53.366;5.212;2022-10-16T00:40:58;35.28;;;3.72;;
55692;SDS011;41590;53.366;5.212;2022-10-16T00:46:37;28.77;;;4.13;;
55692;SDS011;41590;53.366;5.212;2022-10-16T00:51:41;32.00;;;3.85;;
55692;SDS011;41590;53.366;5.212;2022-10-16T00:54:29;31.73;;;4.10;;
55692;SDS011;41590;53.366;5.212;2022-10-16T00:57:11;19.17;;;2.42;;
55692;SDS011;41590;53.366;5.212;2022-10-16T01:02:10;22.05;;;2.95;;
55692;SDS011;41590;53.366;5.212;2022-10-16T01:04:39;25.02;;;4.00;;
55692;SDS011;41590;53.366;5.212;2022-10-16T01:12:27;22.70;;;3.92;;
55692;SDS011;41590;53.366;5.212;2022-10-16T01:18:16;29.63;;;4.00;;
55692;SDS011;41590;53.366;5.212;2022-10-16T01:21:22;24.55;;;3.17;;
55692;SDS011;41590;53.366;5.212;2022-10-16T01:32:09;29.23;;;3.40;;
55692;SDS011;41590;53.366;5.212;2022-10-16T01:34:51;27.38;;;4.57;;
55692;SDS011;41590;53.366;5.212;2022-10-16T01:37:38;19.10;;;3.08;;
55692;SDS011;41590;53.366;5.212;2022-10-16T01:40:11;24.92;;;3.92;;
55692;SDS011;41590;53.366;5.212;2022-10-16T01:42:42;28.10;;;3.63;;
55692;SDS011;41590;53.366;5.212;2022-10-16T01:45:12;28.65;;;4.22;;
55692;SDS011;41590;53.366;5.212;2022-10-16T01:47:42;22.25;;;3.97;;
55692;SDS011;41590;53.366;5.212;2022-10-16T01:50:09;17.92;;;3.50;;
55692;SDS011;41590;53.366;5.212;2022-10-16T01:52:38;23.27;;;3.72;;
55692;SDS011;41590;53.366;5.212;2022-10-16T01:55:18;24.50;;;3.25;;
55692;SDS011;41590;53.366;5.212;2022-10-16T01:57:49;20.92;;;4.30;;
55692;SDS011;41590;53.366;5.212;2022-10-16T02:00:19;33.28;;;4.25;;
55692;SDS011;41590;53.366;5.212;2022-10-16T02:02:48;22.83;;;3.30;;
55692;SDS011;41590;53.366;5.212;2022-10-16T02:07:57;30.27;;;3.90;;
55692;SDS011;41590;53.366;5.212;2022-10-16T02:10:23;27.02;;;4.13;;
55692;SDS011;41590;53.366;5.212;2022-10-16T02:12:56;22.20;;;3.75;;
55692;SDS011;41590;53.366;5.212;2022-10-16T02:15:25;24.35;;;3.78;;
55692;SDS011;41590;53.366;5.212;2022-10-16T02:17:53;24.77;;;3.47;;
55692;SDS011;41590;53.366;5.212;2022-10-16T02:20:20;19.17;;;3.22;;
55692;SDS011;41590;53.366;5.212;2022-10-16T02:22:52;30.00;;;3.90;;
55692;SDS011;41590;53.366;5.212;2022-10-16T02:25:30;24.85;;;3.38;;
55692;SDS011;41590;53.366;5.212;2022-10-16T02:28:11;38.28;;;4.45;;
55692;SDS011;41590;53.366;5.212;2022-10-16T02:30:58;27.80;;;3.50;;
55692;SDS011;41590;53.366;5.212;2022-10-16T02:33:28;35.97;;;4.10;;
55692;SDS011;41590;53.366;5.212;2022-10-16T02:35:56;36.70;;;4.32;;
55692;SDS011;41590;53.366;5.212;2022-10-16T02:38:24;25.60;;;3.72;;
55692;SDS011;41590;53.366;5.212;2022-10-16T02:40:51;29.38;;;3.75;;
55692;SDS011;41590;53.366;5.212;2022-10-16T02:43:21;41.05;;;5.05;;
55692;SDS011;41590;53.366;5.212;2022-10-16T02:45:48;35.42;;;3.65;;
55692;SDS011;41590;53.366;5.212;2022-10-16T02:48:15;37.85;;;4.18;;
55692;SDS011;41590;53.366;5.212;2022-10-16T02:50:41;28.50;;;4.13;;
55692;SDS011;41590;53.366;5.212;2022-10-16T02:53:07;38.50;;;4.88;;
55692;SDS011;41590;53.366;5.212;2022-10-16T02:55:35;44.97;;;4.78;;
55692;SDS011;41590;53.366;5.212;2022-10-16T02:58:01;37.92;;;4.88;;
55692;SDS011;41590;53.366;5.212;2022-10-16T03:00:29;33.78;;;4.03;;
55692;SDS011;41590;53.366;5.212;2022-10-16T03:02:56;28.52;;;3.45;;
55692;SDS011;41590;53.366;5.212;2022-10-16T03:05:21;32.25;;;4.53;;
55692;SDS011;41590;53.366;5.212;2022-10-16T03:07:47;46.03;;;5.70;;
55692;SDS011;41590;53.366;5.212;2022-10-16T03:10:13;36.83;;;4.88;;
55692;SDS011;41590;53.366;5.212;2022-10-16T03:12:40;28.25;;;4.18;;
55692;SDS011;41590;53.366;5.212;2022-10-16T03:15:05;31.08;;;4.15;;
55692;SDS011;41590;53.366;5.212;2022-10-16T03:17:33;30.10;;;3.83;;
55692;SDS011;41590;53.366;5.212;2022-10-16T03:19:59;34.85;;;4.18;;
55692;SDS011;41590;53.366;5.212;2022-10-16T03:22:26;35.15;;;3.92;;
55692;SDS011;41590;53.366;5.212;2022-10-16T03:24:52;27.45;;;4.13;;
55692;SDS011;41590;53.366;5.212;2022-10-16T03:27:18;32.10;;;3.92;;
55692;SDS011;41590;53.366;5.212;2022-10-16T03:29:45;32.40;;;3.65;;
55692;SDS011;41590;53.366;5.212;2022-10-16T03:32:12;27.30;;;4.30;;
55692;SDS011;41590;53.366;5.212;2022-10-16T03:34:40;29.75;;;3.72;;
55692;SDS011;41590;53.366;5.212;2022-10-16T03:37:06;25.00;;;3.60;;
55692;SDS011;41590;53.366;5.212;2022-10-16T03:39:32;28.77;;;4.32;;
55692;SDS011;41590;53.366;5.212;2022-10-16T03:41:57;30.30;;;3.63;;
55692;SDS011;41590;53.366;5.212;2022-10-16T03:44:23;29.90;;;3.92;;
55692;SDS011;41590;53.366;5.212;2022-10-16T03:46:49;28.85;;;3.83;;
55692;SDS011;41590;53.366;5.212;2022-10-16T03:49:14;26.90;;;3.63;;
55692;SDS011;41590;53.366;5.212;2022-10-16T03:51:40;26.33;;;4.15;;
55692;SDS011;41590;53.366;5.212;2022-10-16T03:54:06;21.35;;;4.15;;
55692;SDS011;41590;53.366;5.212;2022-10-16T03:56:32;24.02;;;4.07;;
55692;SDS011;41590;53.366;5.212;2022-10-16T03:58:59;32.25;;;4.28;;
55692;SDS011;41590;53.366;5.212;2022-10-16T04:01:24;41.17;;;4.43;;
55692;SDS011;41590;53.366;5.212;2022-10-16T04:03:50;26.25;;;4.35;;
55692;SDS011;41590;53.366;5.212;2022-10-16T04:06:16;32.10;;;4.00;;
55692;SDS011;41590;53.366;5.212;2022-10-16T04:08:42;33.88;;;4.20;;
55692;SDS011;41590;53.366;5.212;2022-10-16T04:11:08;31.95;;;4.28;;
55692;SDS011;41590;53.366;5.212;2022-10-16T04:13:36;23.73;;;3.13;;
55692;SDS011;41590;53.366;5.212;2022-10-16T04:16:02;16.52;;;3.40;;
55692;SDS011;41590;53.366;5.212;2022-10-16T04:18:28;36.35;;;4.15;;
55692;SDS011;41590;53.366;5.212;2022-10-16T04:20:54;31.02;;;4.88;;
55692;SDS011;41590;53.366;5.212;2022-10-16T04:23:20;36.30;;;5.13;;
55692;SDS011;41590;53.366;5.212;2022-10-16T04:25:45;27.60;;;4.35;;
55692;SDS011;41590;53.366;5.212;2022-10-16T04:28:13;31.95;;;4.50;;
55692;SDS011;41590;53.366;5.212;2022-10-16T04:30:39;34.90;;;4.38;;
55692;SDS011;41590;53.366;5.212;2022-10-16T04:33:05;26.45;;;4.35;;
55692;SDS011;41590;53.366;5.212;2022-10-16T04:35:31;32.45;;;4.80;;
55692;SDS011;41590;53.366;5.212;2022-10-16T04:37:57;27.55;;;4.43;;
55692;SDS011;41590;53.366;5.212;2022-10-16T04:40:24;32.78;;;4.43;;
55692;SDS011;41590;53.366;5.212;2022-10-16T04:42:50;27.70;;;4.05;;
55692;SDS011;41590;53.366;5.212;2022-10-16T04:45:18;25.13;;;4.60;;
55692;SDS011;41590;53.366;5.212;2022-10-16T04:47:44;25.95;;;4.00;;
55692;SDS011;41590;53.366;5.212;2022-10-16T04:50:09;27.50;;;3.38;;
55692;SDS011;41590;53.366;5.212;2022-10-16T04:52:37;20.67;;;3.35;;
55692;SDS011;41590;53.366;5.212;2022-10-16T04:55:03;25.52;;;3.60;;
55692;SDS011;41590;53.366;5.212;2022-10-16T04:57:31;33.20;;;4.15;;
55692;SDS011;41590;53.366;5.212;2022-10-16T04:59:58;33.53;;;4.15;;
55692;SDS011;41590;53.366;5.212;2022-10-16T05:02:24;37.13;;;4.93;;
55692;SDS011;41590;53.366;5.212;2022-10-16T05:04:51;32.15;;;4.28;;
55692;SDS011;41590;53.366;5.212;2022-10-16T05:07:17;29.08;;;4.10;;
55692;SDS011;41590;53.366;5.212;2022-10-16T05:09:43;30.67;;;4.07;;
55692;SDS011;41590;53.366;5.212;2022-10-16T05:12:09;26.35;;;3.72;;
55692;SDS011;41590;53.366;5.212;2022-10-16T05:14:34;30.42;;;3.88;;
55692;SDS011;41590;53.366;5.212;2022-10-16T05:17:00;24.17;;;3.92;;
55692;SDS011;41590;53.366;5.212;2022-10-16T05:19:27;30.42;;;4.30;;
55692;SDS011;41590;53.366;5.212;2022-10-16T05:21:53;34.92;;;4.13;;
55692;SDS011;41590;53.366;5.212;2022-10-16T05:24:18;31.23;;;4.18;;
55692;SDS011;41590;53.366;5.212;2022-10-16T05:26:45;37.42;;;4.65;;
55692;SDS011;41590;53.366;5.212;2022-10-16T05:29:11;22.90;;;3.10;;
55692;SDS011;41590;53.366;5.212;2022-10-16T05:31:37;26.73;;;3.55;;
55692;SDS011;41590;53.366;5.212;2022-10-16T05:34:02;21.75;;;3.60;;
55692;SDS011;41590;53.366;5.212;2022-10-16T05:36:30;27.35;;;4.22;;
55692;SDS011;41590;53.366;5.212;2022-10-16T05:38:58;23.58;;;3.53;;
55692;SDS011;41590;53.366;5.212;2022-10-16T05:41:23;33.38;;;4.25;;
55692;SDS011;41590;53.366;5.212;2022-10-16T05:43:52;24.67;;;4.32;;
55692;SDS011;41590;53.366;5.212;2022-10-16T05:46:18;26.38;;;3.80;;
55692;SDS011;41590;53.366;5.212;2022-10-16T05:48:48;27.63;;;4.60;;
55692;SDS011;41590;53.366;5.212;2022-10-16T05:51:19;33.15;;;4.43;;
55692;SDS011;41590;53.366;5.212;2022-10-16T05:53:47;22.38;;;4.07;;
55692;SDS011;41590;53.366;5.212;2022-10-16T05:56:13;23.50;;;3.47;;
55692;SDS011;41590;53.366;5.212;2022-10-16T05:58:38;31.38;;;4.03;;
55692;SDS011;41590;53.366;5.212;2022-10-16T06:01:14;25.95;;;4.28;;
55692;SDS011;41590;53.366;5.212;2022-10-16T06:03:41;28.02;;;3.85;;
55692;SDS011;41590;53.366;5.212;2022-10-16T06:06:12;31.98;;;4.47;;
55692;SDS011;41590;53.366;5.212;2022-10-16T06:08:38;24.67;;;4.00;;
55692;SDS011;41590;53.366;5.212;2022-10-16T06:11:08;30.85;;;3.65;;
55692;SDS011;41590;53.366;5.212;2022-10-16T06:13:36;25.30;;;5.43;;
55692;SDS011;41590;53.366;5.212;2022-10-16T06:16:03;31.80;;;4.75;;
55692;SDS011;41590;53.366;5.212;2022-10-16T06:18:30;25.55;;;3.72;;
55692;SDS011;41590;53.366;5.212;2022-10-16T06:20:56;28.90;;;3.70;;
55692;SDS011;41590;53.366;5.212;2022-10-16T06:23:23;33.13;;;4.38;;
55692;SDS011;41590;53.366;5.212;2022-10-16T06:25:51;28.77;;;4.15;;
55692;SDS011;41590;53.366;5.212;2022-10-16T06:28:22;26.67;;;3.63;;
55692;SDS011;41590;53.366;5.212;2022-10-16T06:30:48;25.10;;;4.03;;
55692;SDS011;41590;53.366;5.212;2022-10-16T06:33:24;22.63;;;3.80;;
55692;SDS011;41590;53.366;5.212;2022-10-16T06:35:51;29.10;;;4.30;;
55692;SDS011;41590;53.366;5.212;2022-10-16T06:38:16;27.90;;;3.58;;
55692;SDS011;41590;53.366;5.212;2022-10-16T06:40:46;31.70;;;3.70;;
55692;SDS011;41590;53.366;5.212;2022-10-16T06:43:13;29.77;;;4.63;;
55692;SDS011;41590;53.366;5.212;2022-10-16T06:45:40;32.97;;;5.30;;
55692;SDS011;41590;53.366;5.212;2022-10-16T06:48:08;38.60;;;5.28;;
55692;SDS011;41590;53.366;5.212;2022-10-16T06:50:34;25.05;;;3.53;;
55692;SDS011;41590;53.366;5.212;2022-10-16T06:53:00;26.85;;;3.38;;
55692;SDS011;41590;53.366;5.212;2022-10-16T06:55:26;30.10;;;4.20;;
55692;SDS011;41590;53.366;5.212;2022-10-16T06:57:52;24.40;;;4.32;;
55692;SDS011;41590;53.366;5.212;2022-10-16T07:02:46;22.73;;;3.45;;
55692;SDS011;41590;53.366;5.212;2022-10-16T07:05:12;30.10;;;5.60;;
55692;SDS011;41590;53.366;5.212;2022-10-16T07:07:38;25.75;;;4.35;;
55692;SDS011;41590;53.366;5.212;2022-10-16T07:10:05;27.27;;;3.38;;
55692;SDS011;41590;53.366;5.212;2022-10-16T07:12:31;30.45;;;4.65;;
55692;SDS011;41590;53.366;5.212;2022-10-16T07:14:57;20.13;;;4.15;;
55692;SDS011;41590;53.366;5.212;2022-10-16T07:17:23;32.42;;;4.50;;
55692;SDS011;41590;53.366;5.212;2022-10-16T07:19:51;30.75;;;3.70;;
55692;SDS011;41590;53.366;5.212;2022-10-16T07:22:18;29.85;;;4.53;;
55692;SDS011;41590;53.366;5.212;2022-10-16T07:24:45;27.63;;;5.07;;
55692;SDS011;41590;53.366;5.212;2022-10-16T07:27:11;23.73;;;4.28;;
55692;SDS011;41590;53.366;5.212;2022-10-16T07:29:38;23.35;;;3.63;;
55692;SDS011;41590;53.366;5.212;2022-10-16T07:32:04;31.38;;;4.30;;
55692;SDS011;41590;53.366;5.212;2022-10-16T07:34:30;25.88;;;3.92;;
55692;SDS011;41590;53.366;5.212;2022-10-16T07:36:56;20.63;;;3.90;;
55692;SDS011;41590;53.366;5.212;2022-10-16T07:39:21;23.73;;;3.30;;
55692;SDS011;41590;53.366;5.212;2022-10-16T07:41:47;22.48;;;3.55;;
55692;SDS011;41590;53.366;5.212;2022-10-16T07:44:13;30.02;;;4.32;;
55692;SDS011;41590;53.366;5.212;2022-10-16T07:46:40;28.70;;;4.53;;
55692;SDS011;41590;53.366;5.212;2022-10-16T07:49:08;33.63;;;4.68;;
55692;SDS011;41590;53.366;5.212;2022-10-16T07:51:34;23.80;;;4.10;;
55692;SDS011;41590;53.366;5.212;2022-10-16T07:59:21;20.73;;;2.65;;
55692;SDS011;41590;53.366;5.212;2022-10-16T08:04:46;23.55;;;3.50;;
55692;SDS011;41590;53.366;5.212;2022-10-16T08:09:43;26.38;;;3.83;;
55692;SDS011;41590;53.366;5.212;2022-10-16T08:12:08;26.40;;;3.42;;
55692;SDS011;41590;53.366;5.212;2022-10-16T08:14:35;26.95;;;4.38;;
55692;SDS011;41590;53.366;5.212;2022-10-16T08:17:02;20.88;;;3.45;;
55692;SDS011;41590;53.366;5.212;2022-10-16T08:19:29;17.63;;;3.00;;
55692;SDS011;41590;53.366;5.212;2022-10-16T08:21:57;21.77;;;3.80;;
55692;SDS011;41590;53.366;5.212;2022-10-16T08:24:23;22.42;;;3.45;;
55692;SDS011;41590;53.366;5.212;2022-10-16T08:26:50;24.15;;;4.13;;
55692;SDS011;41590;53.366;5.212;2022-10-16T08:29:18;17.10;;;2.42;;
55692;SDS011;41590;53.366;5.212;2022-10-16T08:31:43;22.45;;;3.33;;
55692;SDS011;41590;53.366;5.212;2022-10-16T08:34:10;17.73;;;2.47;;
55692;SDS011;41590;53.366;5.212;2022-10-16T08:36:37;16.38;;;2.60;;
55692;SDS011;41590;53.366;5.212;2022-10-16T08:39:03;19.35;;;3.25;;
55692;SDS011;41590;53.366;5.212;2022-10-16T08:41:32;19.48;;;3.65;;
55692;SDS011;41590;53.366;5.212;2022-10-16T08:46:45;23.23;;;4.15;;
55692;SDS011;41590;53.366;5.212;2022-10-16T08:49:14;27.63;;;3.35;;
55692;SDS011;41590;53.366;5.212;2022-10-16T08:51:40;25.58;;;4.38;;
55692;SDS011;41590;53.366;5.212;2022-10-16T08:56:55;23.80;;;3.80;;
55692;SDS011;41590;53.366;5.212;2022-10-16T08:59:23;20.35;;;3.55;;
55692;SDS011;41590;53.366;5.212;2022-10-16T09:01:50;27.10;;;4.20;;
55692;SDS011;41590;53.366;5.212;2022-10-16T09:04:26;20.98;;;3.80;;
55692;SDS011;41590;53.366;5.212;2022-10-16T09:10:21;15.73;;;2.88;;
55692;SDS011;41590;53.366;5.212;2022-10-16T09:13:21;17.38;;;2.45;;
55692;SDS011;41590;53.366;5.212;2022-10-16T09:18:54;20.02;;;3.65;;
55692;SDS011;41590;53.366;5.212;2022-10-16T09:23:54;20.10;;;3.33;;
55692;SDS011;41590;53.366;5.212;2022-10-16T09:26:23;12.73;;;2.40;;
55692;SDS011;41590;53.366;5.212;2022-10-16T09:28:51;18.98;;;3.35;;
55692;SDS011;41590;53.366;5.212;2022-10-16T09:31:23;18.05;;;3.17;;
55692;SDS011;41590;53.366;5.212;2022-10-16T09:33:50;16.13;;;2.67;;
55692;SDS011;41590;53.366;5.212;2022-10-16T09:36:23;20.10;;;3.47;;
55692;SDS011;41590;53.366;5.212;2022-10-16T09:39:01;24.40;;;3.85;;
55692;SDS011;41590;53.366;5.212;2022-10-16T09:41:28;17.35;;;2.88;;
55692;SDS011;41590;53.366;5.212;2022-10-16T09:43:55;15.00;;;3.22;;
55692;SDS011;41590;53.366;5.212;2022-10-16T09:46:31;17.70;;;2.40;;
55692;SDS011;41590;53.366;5.212;2022-10-16T09:49:16;21.00;;;3.40;;
55692;SDS011;41590;53.366;5.212;2022-10-16T09:51:49;12.85;;;2.67;;
55692;SDS011;41590;53.366;5.212;2022-10-16T09:54:20;21.40;;;2.85;;
55692;SDS011;41590;53.366;5.212;2022-10-16T09:56:47;21.38;;;2.60;;
55692;SDS011;41590;53.366;5.212;2022-10-16T09:59:21;21.08;;;3.63;;
55692;SDS011;41590;53.366;5.212;2022-10-16T10:01:53;16.80;;;2.60;;
55692;SDS011;41590;53.366;5.212;2022-10-16T10:04:21;16.75;;;2.50;;
55692;SDS011;41590;53.366;5.212;2022-10-16T10:12:00;15.82;;;3.20;;
55692;SDS011;41590;53.366;5.212;2022-10-16T10:17:16;23.60;;;3.05;;
55692;SDS011;41590;53.366;5.212;2022-10-16T10:27:57;12.35;;;2.38;;
55692;SDS011;41590;53.366;5.212;2022-10-16T10:33:47;14.40;;;2.42;;
55692;SDS011;41590;53.366;5.212;2022-10-16T10:41:52;11.70;;;2.13;;
55692;SDS011;41590;53.366;5.212;2022-10-16T10:47:14;18.38;;;2.47;;
55692;SDS011;41590;53.366;5.212;2022-10-16T11:08:00;17.30;;;2.03;;
55692;SDS011;41590;53.366;5.212;2022-10-16T11:10:31;14.32;;;1.90;;
55692;SDS011;41590;53.366;5.212;2022-10-16T11:13:16;11.98;;;2.22;;
55692;SDS011;41590;53.366;5.212;2022-10-16T11:15:45;15.40;;;2.10;;
55692;SDS011;41590;53.366;5.212;2022-10-16T11:18:16;18.27;;;2.38;;
55692;SDS011;41590;53.366;5.212;2022-10-16T11:20:52;14.45;;;2.20;;
55692;SDS011;41590;53.366;5.212;2022-10-16T11:25:56;11.43;;;2.13;;
55692;SDS011;41590;53.366;5.212;2022-10-16T11:28:27;13.27;;;1.63;;
55692;SDS011;41590;53.366;5.212;2022-10-16T11:31:00;13.73;;;2.53;;
55692;SDS011;41590;53.366;5.212;2022-10-16T11:33:43;11.65;;;1.85;;
55692;SDS011;41590;53.366;5.212;2022-10-16T11:42:08;14.52;;;2.00;;
55692;SDS011;41590;53.366;5.212;2022-10-16T11:47:41;11.70;;;1.73;;
55692;SDS011;41590;53.366;5.212;2022-10-16T11:55:27;10.38;;;2.33;;
55692;SDS011;41590;53.366;5.212;2022-10-16T11:58:04;11.25;;;3.00;;
55692;SDS011;41590;53.366;5.212;2022-10-16T12:04:03;9.15;;;1.85;;
55692;SDS011;41590;53.366;5.212;2022-10-16T12:06:40;11.63;;;1.92;;
55692;SDS011;41590;53.366;5.212;2022-10-16T12:09:11;12.93;;;2.55;;
55692;SDS011;41590;53.366;5.212;2022-10-16T12:12:01;10.38;;;1.80;;
55692;SDS011;41590;53.366;5.212;2022-10-16T12:22:40;11.68;;;1.65;;
55692;SDS011;41590;53.366;5.212;2022-10-16T12:25:37;10.80;;;1.77;;
55692;SDS011;41590;53.366;5.212;2022-10-16T12:30:40;8.48;;;1.50;;
55692;SDS011;41590;53.366;5.212;2022-10-16T12:33:29;8.63;;;1.70;;
55692;SDS011;41590;53.366;5.212;2022-10-16T12:35:55;15.13;;;1.95;;
55692;SDS011;41590;53.366;5.212;2022-10-16T12:41:05;10.38;;;1.75;;
55692;SDS011;41590;53.366;5.212;2022-10-16T12:43:42;12.85;;;1.85;;
55692;SDS011;41590;53.366;5.212;2022-10-16T12:48:40;16.73;;;1.83;;
55692;SDS011;41590;53.366;5.212;2022-10-16T12:51:25;10.70;;;1.80;;
55692;SDS011;41590;53.366;5.212;2022-10-16T12:54:04;8.52;;;1.98;;
55692;SDS011;41590;53.366;5.212;2022-10-16T12:57:03;10.85;;;1.70;;
55692;SDS011;41590;53.366;5.212;2022-10-16T12:59:42;8.50;;;1.80;;
55692;SDS011;41590;53.366;5.212;2022-10-16T13:13:43;12.80;;;1.92;;
55692;SDS011;41590;53.366;5.212;2022-10-16T13:16:22;10.70;;;1.90;;
55692;SDS011;41590;53.366;5.212;2022-10-16T13:29:41;8.55;;;1.50;;
55692;SDS011;41590;53.366;5.212;2022-10-16T13:32:07;10.35;;;1.80;;
55692;SDS011;41590;53.366;5.212;2022-10-16T13:34:45;12.52;;;1.60;;
55692;SDS011;41590;53.366;5.212;2022-10-16T13:37:20;12.27;;;1.75;;
55692;SDS011;41590;53.366;5.212;2022-10-16T13:39:49;11.95;;;2.00;;
55692;SDS011;41590;53.366;5.212;2022-10-16T13:42:25;10.55;;;2.25;;
55692;SDS011;41590;53.366;5.212;2022-10-16T13:44:53;15.57;;;2.28;;
55692;SDS011;41590;53.366;5.212;2022-10-16T13:47:24;9.15;;;1.50;;
55692;SDS011;41590;53.366;5.212;2022-10-16T13:50:09;10.35;;;1.60;;
55692;SDS011;41590;53.366;5.212;2022-10-16T13:52:42;10.32;;;1.70;;
55692;SDS011;41590;53.366;5.212;2022-10-16T13:55:17;9.80;;;1.50;;
55692;SDS011;41590;53.366;5.212;2022-10-16T13:57:43;12.02;;;1.92;;
55692;SDS011;41590;53.366;5.212;2022-10-16T14:00:23;9.93;;;1.70;;
55692;SDS011;41590;53.366;5.212;2022-10-16T14:03:01;13.07;;;1.65;;
55692;SDS011;41590;53.366;5.212;2022-10-16T14:05:44;9.55;;;1.50;;
55692;SDS011;41590;53.366;5.212;2022-10-16T14:08:14;13.50;;;1.83;;
55692;SDS011;41590;53.366;5.212;2022-10-16T14:10:42;12.00;;;1.67;;
55692;SDS011;41590;53.366;5.212;2022-10-16T14:13:12;11.10;;;1.58;;
55692;SDS011;41590;53.366;5.212;2022-10-16T14:15:45;10.75;;;1.55;;
55692;SDS011;41590;53.366;5.212;2022-10-16T14:18:16;8.02;;;1.50;;
55692;SDS011;41590;53.366;5.212;2022-10-16T14:20:48;10.13;;;1.45;;
55692;SDS011;41590;53.366;5.212;2022-10-16T14:23:22;10.57;;;1.88;;
55692;SDS011;41590;53.366;5.212;2022-10-16T14:28:36;16.10;;;1.67;;
55692;SDS011;41590;53.366;5.212;2022-10-16T14:31:16;11.00;;;1.45;;
55692;SDS011;41590;53.366;5.212;2022-10-16T14:33:59;7.50;;;1.30;;
55692;SDS011;41590;53.366;5.212;2022-10-16T14:36:27;13.82;;;2.28;;
55692;SDS011;41590;53.366;5.212;2022-10-16T14:41:44;9.40;;;1.65;;
55692;SDS011;41590;53.366;5.212;2022-10-16T14:44:12;16.70;;;2.30;;
55692;SDS011;41590;53.366;5.212;2022-10-16T14:46:39;8.13;;;1.63;;
55692;SDS011;41590;53.366;5.212;2022-10-16T14:51:38;11.30;;;1.63;;
55692;SDS011;41590;53.366;5.212;2022-10-16T14:54:11;12.00;;;1.70;;
55692;SDS011;41590;53.366;5.212;2022-10-16T14:56:48;15.48;;;2.30;;
55692;SDS011;41590;53.366;5.212;2022-10-16T14:59:21;10.52;;;1.40;;
55692;SDS011;41590;53.366;5.212;2022-10-16T15:01:51;13.57;;;1.88;;
55692;SDS011;41590;53.366;5.212;2022-10-16T15:04:18;11.68;;;1.95;;
55692;SDS011;41590;53.366;5.212;2022-10-16T15:06:44;14.00;;;1.88;;
55692;SDS011;41590;53.366;5.212;2022-10-16T15:09:10;8.75;;;1.45;;
55692;SDS011;41590;53.366;5.212;2022-10-16T15:11:37;10.68;;;1.42;;
55692;SDS011;41590;53.366;5.212;2022-10-16T15:14:03;12.25;;;1.77;;
55692;SDS011;41590;53.366;5.212;2022-10-16T15:16:31;9.00;;;1.60;;
55692;SDS011;41590;53.366;5.212;2022-10-16T15:21:57;15.13;;;2.28;;
55692;SDS011;41590;53.366;5.212;2022-10-16T15:24:23;12.13;;;1.70;;
55692;SDS011;41590;53.366;5.212;2022-10-16T15:26:49;14.40;;;1.85;;
55692;SDS011;41590;53.366;5.212;2022-10-16T15:29:24;17.30;;;2.42;;
55692;SDS011;41590;53.366;5.212;2022-10-16T15:35:13;11.85;;;1.90;;
55692;SDS011;41590;53.366;5.212;2022-10-16T15:43:00;17.30;;;2.10;;
55692;SDS011;41590;53.366;5.212;2022-10-16T15:45:25;14.63;;;2.05;;
55692;SDS011;41590;53.366;5.212;2022-10-16T15:47:57;22.65;;;2.13;;
55692;SDS011;41590;53.366;5.212;2022-10-16T15:50:25;19.40;;;2.50;;
55692;SDS011;41590;53.366;5.212;2022-10-16T15:52:51;10.57;;;1.85;;
55692;SDS011;41590;53.366;5.212;2022-10-16T15:55:17;19.98;;;1.70;;
55692;SDS011;41590;53.366;5.212;2022-10-16T15:57:45;8.45;;;1.70;;
55692;SDS011;41590;53.366;5.212;2022-10-16T16:00:14;18.08;;;2.30;;
55692;SDS011;41590;53.366;5.212;2022-10-16T16:02:48;22.88;;;2.30;;
55692;SDS011;41590;53.366;5.212;2022-10-16T16:05:16;20.35;;;2.47;;
55692;SDS011;41590;53.366;5.212;2022-10-16T16:07:41;14.80;;;2.42;;
55692;SDS011;41590;53.366;5.212;2022-10-16T16:10:09;11.82;;;2.65;;
55692;SDS011;41590;53.366;5.212;2022-10-16T16:12:37;19.45;;;2.78;;
55692;SDS011;41590;53.366;5.212;2022-10-16T16:15:04;13.50;;;1.95;;
55692;SDS011;41590;53.366;5.212;2022-10-16T16:17:32;14.43;;;2.33;;
55692;SDS011;41590;53.366;5.212;2022-10-16T16:19:58;20.70;;;3.38;;
55692;SDS011;41590;53.366;5.212;2022-10-16T16:22:24;15.07;;;1.90;;
55692;SDS011;41590;53.366;5.212;2022-10-16T16:24:50;13.50;;;2.03;;
55692;SDS011;41590;53.366;5.212;2022-10-16T16:27:18;12.95;;;2.28;;
55692;SDS011;41590;53.366;5.212;2022-10-16T16:29:52;16.15;;;2.45;;
55692;SDS011;41590;53.366;5.212;2022-10-16T16:32:24;12.93;;;2.03;;
55692;SDS011;41590;53.366;5.212;2022-10-16T16:34:51;15.15;;;2.60;;
55692;SDS011;41590;53.366;5.212;2022-10-16T16:37:22;18.48;;;2.97;;
55692;SDS011;41590;53.366;5.212;2022-10-16T16:39:59;21.45;;;2.40;;
55692;SDS011;41590;53.366;5.212;2022-10-16T16:42:41;25.65;;;3.33;;
55692;SDS011;41590;53.366;5.212;2022-10-16T16:45:08;22.77;;;3.10;;
55692;SDS011;41590;53.366;5.212;2022-10-16T16:50:27;17.98;;;2.65;;
55692;SDS011;41590;53.366;5.212;2022-10-16T16:52:53;17.13;;;2.35;;
55692;SDS011;41590;53.366;5.212;2022-10-16T16:55:19;13.75;;;2.40;;
55692;SDS011;41590;53.366;5.212;2022-10-16T16:57:49;16.38;;;3.03;;
55692;SDS011;41590;53.366;5.212;2022-10-16T17:00:19;22.42;;;2.95;;
55692;SDS011;41590;53.366;5.212;2022-10-16T17:02:48;20.95;;;3.20;;
55692;SDS011;41590;53.366;5.212;2022-10-16T17:05:18;21.33;;;4.45;;
55692;SDS011;41590;53.366;5.212;2022-10-16T17:07:46;18.88;;;4.95;;
55692;SDS011;41590;53.366;5.212;2022-10-16T17:10:13;20.40;;;4.68;;
55692;SDS011;41590;53.366;5.212;2022-10-16T17:12:42;16.52;;;3.15;;
55692;SDS011;41590;53.366;5.212;2022-10-16T17:15:08;23.38;;;3.00;;
55692;SDS011;41590;53.366;5.212;2022-10-16T17:17:35;17.25;;;2.60;;
55692;SDS011;41590;53.366;5.212;2022-10-16T17:22:37;13.40;;;3.20;;
55692;SDS011;41590;53.366;5.212;2022-10-16T17:25:03;17.48;;;3.85;;
55692;SDS011;41590;53.366;5.212;2022-10-16T17:27:40;25.38;;;6.93;;
55692;SDS011;41590;53.366;5.212;2022-10-16T17:30:15;32.38;;;22.90;;
55692;SDS011;41590;53.366;5.212;2022-10-16T17:32:50;39.70;;;26.58;;
55692;SDS011;41590;53.366;5.212;2022-10-16T17:35:17;27.67;;;9.98;;
55692;SDS011;41590;53.366;5.212;2022-10-16T17:37:46;23.48;;;10.52;;
55692;SDS011;41590;53.366;5.212;2022-10-16T17:40:13;29.17;;;10.52;;
55692;SDS011;41590;53.366;5.212;2022-10-16T17:42:44;24.63;;;6.80;;
55692;SDS011;41590;53.366;5.212;2022-10-16T17:45:10;22.75;;;6.60;;
55692;SDS011;41590;53.366;5.212;2022-10-16T17:47:38;23.38;;;5.65;;
55692;SDS011;41590;53.366;5.212;2022-10-16T17:50:06;25.98;;;5.72;;
55692;SDS011;41590;53.366;5.212;2022-10-16T17:52:32;22.17;;;7.03;;
55692;SDS011;41590;53.366;5.212;2022-10-16T17:54:58;22.98;;;6.65;;